SBGRSBUR

Guest
Details From SBGR - Sao Paulo - Guarulhos
To SBUR - Uberaba
Flight Number -
Tags generated
Created
Modified
Stats Distance 238 nm / 441 km
Max Altitude 24,500 ft / 7,468 m
Waypoints 4
Social Downloads 0
Likes 0
Share VATSIM

Download

Looking for another format? Having issues loading an existing format? Contact us
Advertisement - Login to hide

Notes

Basic altitude profile: - Ascent Rate: 2500ft/min - Ascent Speed: 250kts - Cruise Altitude: 13000ft - Cruise Speed: 420kts - Descent Rate: 1500ft/min - Descent Speed: 250kts

Route

SBGR PSN UW54 ABAFT SBUR

ID Type Via Altitude Latitude Longitude Leg Dist Tot Dist Heading (true) Name
O SBGR APT - 0 ft / 0 m -23.43233˚ -46.46968˚ - 0 nm - Sao Paulo - Guarulhos
PSN VOR - 12,000 ft / 3,658 m -21.98450˚ -47.34417˚ 99 nm 99 nm 331° / 331° PIRASSUNUNGA VOR-DME
ABAFT FIX UW54 (AWY-HI) 24,500 ft / 7,468 m -20.40958˚ -47.90858˚ 99 nm 199 nm 341° / 342° -
O SBUR APT - 0 ft / 0 m -19.76500˚ -47.96478˚ 38 nm 238 nm 355° / 355° Uberaba

Altitude Profile

Advertisement - Login to hide

Weather


0- 5 10 15 20 25 30 35+ Temperature / ° C

Clouds and Precipitation
Forecast for 2017-12-11 12:00 UTC. Updated 6 minutes ago

Ground ~20,000 ft ~40,000 ft Winds

SBGR

Details ICAO SBGR (GRU)
Name Sao Paulo - Guarulhos
Region Brazil
Timezone America/Sao_Paulo (UTC-2.0)
Stats Elevation 2,459 ft / 750 m (AMSL)
Location -23.432333° -46.469675°
Runways 2
Magnetic Variation 21.412° W

METAR

SBGR 111100Z 06005KT 5000 BR NSC 20/19 Q1009

Decode

TAF

TAF SBGR 110115Z 1106/1212 08002KT CAVOK TX30/1115Z TN16/1208Z PROB30 1106/1109 4000 BR BKN004 BECMG 1115/1117 17010KT BKN025 BECMG 1119/1121 BKN011 PROB30 1121/1201 4000 DZ OVC007 BECMG 1201/1203 15005KT OVC009 RMK PGF

Decode

Departure Runways

ID Width Length Bearing (true) Bearing (mag) Surface Threshold Offset Overrun Length
09L 148 ft / 45 m 12,676 ft / 3,864 m 73.61° 95.02° Asphalt 495 ft / 151 m 0 ft / 0 m
09R 148 ft / 45 m 9,950 ft / 3,033 m 73.60° 95.01° Asphalt 0 ft / 0 m 197 ft / 60 m
27L 148 ft / 45 m 9,950 ft / 3,033 m 253.59° 275.00° Asphalt 0 ft / 0 m 197 ft / 60 m
27R 148 ft / 45 m 12,676 ft / 3,864 m 253.60° 275.01° Asphalt 197 ft / 60 m 0 ft / 0 m

SBUR

Details ICAO SBUR (UBA)
Name Uberaba
Region Brazil
Timezone America/Sao_Paulo (UTC-2.0)
Stats Elevation 2,655 ft / 809 m (AMSL)
Location -19.765000° -47.964777°
Runways 1
Magnetic Variation 21.284° W

METAR

SBUR 111100Z 31004KT CAVOK 23/19 Q1010

Decode

TAF

TAF SBUR 110115Z 1106/1118 02005KT CAVOK TN21/1109Z TX31/1117Z BECMG 1109/1111 32005KT BECMG 1113/1115 25010KT BKN040 RMK PGF

Decode

Destination Runways

ID Width Length Bearing (true) Bearing (mag) Surface Threshold Offset Overrun Length
17 148 ft / 45 m 5,791 ft / 1,765 m 149.07° 170.35° Asphalt 0 ft / 0 m 0 ft / 0 m
35 148 ft / 45 m 5,791 ft / 1,765 m 329.07° 350.35° Asphalt 0 ft / 0 m 0 ft / 0 m

Popular Alternatives